Time;durP1;ratioP1;P1;durP2;ratioP2;P2;SDS_P1;SDS_P2;PMS_P1;PMS_P2;Temp;Humidity;BMP_temperature;BMP_pressure;BME280_temperature;BME280_humidity;BME280_pressure;Samples;Min_cycle;Max_cycle;Signal;HPM_P1;HPM_P2
2022/07/21 00:01:00;;;;;;;;;3.75;3.75;;;;;;;;5098825;27;45350;-65
2022/07/21 00:03:25;;;;;;;;;0.00;0.00;;;;;;;;5098663;27;45787;-64
2022/07/21 00:05:50;;;;;;;;;4.50;3.00;;;;;;;;5098474;27;45450;-64
2022/07/21 00:08:15;;;;;;;;;2.75;2.75;;;;;;;;5098508;27;45337;-64
2022/07/21 00:10:41;;;;;;;;;5.25;3.75;;;;;;;;5098409;27;45281;-65
2022/07/21 00:13:06;;;;;;;;;3.50;3.50;;;;;;;;5098497;27;46185;-65
2022/07/21 00:15:32;;;;;;;;;3.00;3.00;;;;;;;;5098100;27;45399;-64
2022/07/21 00:17:57;;;;;;;;;3.75;3.75;;;;;;;;5098580;27;45428;-64
2022/07/21 00:20:23;;;;;;;;;4.25;3.00;;;;;;;;5097211;27;45346;-64
2022/07/21 00:22:48;;;;;;;;;3.25;3.25;;;;;;;;5098896;27;45721;-65
2022/07/21 00:25:14;;;;;;;;;4.00;4.00;;;;;;;;5116842;27;45320;-64
2022/07/21 00:27:39;;;;;;;;;3.50;3.50;;;;;;;;5098150;27;45480;-65
2022/07/21 00:30:06;;;;;;;;;5.00;4.00;;;;;;;;5098146;27;45438;-64
2022/07/21 00:32:31;;;;;;;;;4.00;4.00;;;;;;;;5097836;27;46638;-65
2022/07/21 00:34:56;;;;;;;;;3.00;3.00;;;;;;;;5097734;27;45459;-65
2022/07/21 00:37:23;;;;;;;;;3.00;3.00;;;;;;;;5098063;27;45439;-64
2022/07/21 00:39:49;;;;;;;;;4.00;4.00;;;;;;;;5097866;27;45547;-64
2022/07/21 00:42:22;;;;;;;;;4.00;4.00;;;;;;;;5079305;27;47491;-65
2022/07/21 00:44:47;;;;;;;;;4.00;3.50;;;;;;;;5097673;27;45306;-64
2022/07/21 00:47:12;;;;;;;;;2.75;2.75;;;;;;;;5096880;27;45412;-64
2022/07/21 00:49:37;;;;;;;;;4.50;4.50;;;;;;;;5097812;27;45314;-64
2022/07/21 00:52:03;;;;;;;;;4.25;4.25;;;;;;;;5097670;27;45465;-64
2022/07/21 00:54:28;;;;;;;;;3.00;3.00;;;;;;;;5098017;27;45378;-65
2022/07/21 00:56:53;;;;;;;;;3.50;3.50;;;;;;;;5097731;27;45412;-64
2022/07/21 00:59:19;;;;;;;;;2.75;2.75;;;;;;;;5097731;27;45407;-64
2022/07/21 01:01:44;;;;;;;;;3.75;2.75;;;;;;;;5097512;27;46404;-64
2022/07/21 01:04:09;;;;;;;;;3.00;3.00;;;;;;;;5097693;27;45335;-65
2022/07/21 01:06:34;;;;;;;;;6.00;2.75;;;;;;;;5079381;27;45444;-65
2022/07/21 01:09:00;;;;;;;;;3.25;3.00;;;;;;;;5097398;27;45323;-65
2022/07/21 01:11:25;;;;;;;;;3.25;2.25;;;;;;;;5078977;27;45434;-64
2022/07/21 01:13:51;;;;;;;;;3.50;2.50;;;;;;;;5078894;27;45377;-64
2022/07/21 01:16:16;;;;;;;;;1.25;1.25;;;;;;;;5097296;27;45400;-64
2022/07/21 01:18:41;;;;;;;;;2.75;2.75;;;;;;;;5097523;27;45407;-64
2022/07/21 01:21:32;;;;;;;;;3.50;3.50;;;;;;;;5097383;27;45526;-64
2022/07/21 01:23:58;;;;;;;;;4.25;4.25;;;;;;;;5094254;27;45429;-64
2022/07/21 01:26:23;;;;;;;;;4.00;4.00;;;;;;;;5096916;27;45332;-63
2022/07/21 01:28:48;;;;;;;;;3.75;3.75;;;;;;;;5097337;27;45524;-64
2022/07/21 01:31:14;;;;;;;;;4.00;4.00;;;;;;;;5078610;27;48615;-64
2022/07/21 01:33:39;;;;;;;;;3.00;3.00;;;;;;;;5078794;27;46184;-64
2022/07/21 01:36:05;;;;;;;;;2.50;2.50;;;;;;;;5097137;27;45313;-65
2022/07/21 01:41:29;;;;;;;;;4.00;4.00;;;;;;;;5096977;27;45359;-65
2022/07/21 01:43:55;;;;;;;;;3.00;3.00;;;;;;;;5096915;27;45481;-65
2022/07/21 01:46:20;;;;;;;;;5.00;4.00;;;;;;;;5096707;27;45436;-64
2022/07/21 01:48:46;;;;;;;;;3.00;3.00;;;;;;;;5061490;27;45214;-65
2022/07/21 01:51:11;;;;;;;;;2.25;2.25;;;;;;;;5096962;27;45334;-64
2022/07/21 01:53:37;;;;;;;;;3.00;3.00;;;;;;;;5096615;27;45391;-64
2022/07/21 01:56:02;;;;;;;;;4.50;4.50;;;;;;;;5096681;27;45274;-65
2022/07/21 01:58:29;;;;;;;;;5.00;5.00;;;;;;;;5096545;27;45404;-65
2022/07/21 02:00:54;;;;;;;;;4.25;4.25;;;;;;;;5096641;27;45366;-64
2022/07/21 02:03:19;;;;;;;;;6.00;3.75;;;;;;;;5078210;27;45474;-64
2022/07/21 02:05:44;;;;;;;;;4.00;4.00;;;;;;;;5096799;27;45442;-65
2022/07/21 02:08:09;;;;;;;;;5.00;4.00;;;;;;;;5096738;27;45354;-65
2022/07/21 02:10:35;;;;;;;;;3.00;3.00;;;;;;;;5096536;27;47189;-64
2022/07/21 02:13:02;;;;;;;;;2.75;2.75;;;;;;;;5096498;27;45417;-64
2022/07/21 02:15:28;;;;;;;;;4.00;4.00;;;;;;;;5096243;27;45360;-63
2022/07/21 02:17:53;;;;;;;;;3.75;3.75;;;;;;;;5096488;27;45492;-63
2022/07/21 02:20:18;;;;;;;;;3.75;3.75;;;;;;;;5096299;27;46556;-64
2022/07/21 02:22:45;;;;;;;;;3.50;3.00;;;;;;;;5096301;27;45329;-64
2022/07/21 02:25:10;;;;;;;;;5.50;5.00;;;;;;;;5096377;27;45285;-64
2022/07/21 02:27:35;;;;;;;;;4.50;4.50;;;;;;;;5096406;27;45391;-64
2022/07/21 02:30:00;;;;;;;;;6.00;4.50;;;;;;;;5096256;27;46493;-64
2022/07/21 02:32:25;;;;;;;;;5.75;4.50;;;;;;;;5096348;27;45405;-64
2022/07/21 02:34:51;;;;;;;;;5.50;5.50;;;;;;;;5096367;27;45364;-65
2022/07/21 02:37:16;;;;;;;;;5.00;5.00;;;;;;;;5096472;27;45259;-63
2022/07/21 02:39:41;;;;;;;;;7.00;5.25;;;;;;;;5096130;27;46973;-64
2022/07/21 02:42:06;;;;;;;;;6.50;6.00;;;;;;;;5096184;27;45319;-64
2022/07/21 02:44:32;;;;;;;;;4.25;4.25;;;;;;;;5096218;27;45467;-63
2022/07/21 02:46:57;;;;;;;;;5.50;5.50;;;;;;;;5096169;27;45290;-65
2022/07/21 02:49:22;;;;;;;;;3.75;3.25;;;;;;;;5095665;27;47604;-63
2022/07/21 02:51:47;;;;;;;;;6.50;4.00;;;;;;;;5096203;27;45384;-64
2022/07/21 02:54:12;;;;;;;;;7.50;6.50;;;;;;;;5096243;27;45510;-64
2022/07/21 02:56:38;;;;;;;;;9.50;7.50;;;;;;;;5096051;27;45336;-64
2022/07/21 02:59:04;;;;;;;;;5.50;5.50;;;;;;;;5095847;27;45602;-65
2022/07/21 03:01:29;;;;;;;;;9.25;6.75;;;;;;;;5095771;27;45412;-64
2022/07/21 03:03:54;;;;;;;;;9.25;7.25;;;;;;;;5096030;27;45324;-64
2022/07/21 03:06:19;;;;;;;;;7.00;6.00;;;;;;;;5077442;27;45422;-64
2022/07/21 03:08:44;;;;;;;;;12.00;9.50;;;;;;;;5095764;27;45609;-63
2022/07/21 03:11:10;;;;;;;;;8.25;8.25;;;;;;;;5098309;27;45325;-64
2022/07/21 03:13:35;;;;;;;;;11.50;10.50;;;;;;;;5081101;27;45589;-64
2022/07/21 03:16:00;;;;;;;;;10.50;10.50;;;;;;;;5099413;27;45473;-63
2022/07/21 03:18:25;;;;;;;;;8.25;8.25;;;;;;;;5099401;27;45494;-64
2022/07/21 03:20:51;;;;;;;;;11.75;11.75;;;;;;;;5099145;27;45492;-65
2022/07/21 03:23:16;;;;;;;;;11.00;11.00;;;;;;;;5099606;27;45396;-64
2022/07/21 03:25:41;;;;;;;;;12.00;12.00;;;;;;;;5099191;27;46144;-65
2022/07/21 03:28:07;;;;;;;;;11.50;11.50;;;;;;;;5098800;27;46527;-64
2022/07/21 03:30:32;;;;;;;;;12.00;10.50;;;;;;;;5099158;27;45337;-65
2022/07/21 03:32:57;;;;;;;;;13.00;11.75;;;;;;;;5099059;27;45378;-64
2022/07/21 03:35:23;;;;;;;;;13.00;13.00;;;;;;;;5099244;27;45385;-64
2022/07/21 03:37:51;;;;;;;;;11.25;10.25;;;;;;;;5098933;27;45407;-65
2022/07/21 03:40:17;;;;;;;;;13.25;13.25;;;;;;;;5098730;27;45337;-65
2022/07/21 03:42:42;;;;;;;;;12.00;12.00;;;;;;;;5098799;27;45333;-64
2022/07/21 03:45:08;;;;;;;;;11.25;11.25;;;;;;;;5080379;27;45540;-65
2022/07/21 03:47:33;;;;;;;;;9.50;9.50;;;;;;;;5098543;27;46039;-65
2022/07/21 03:49:59;;;;;;;;;11.50;11.50;;;;;;;;5098667;27;45214;-64
2022/07/21 03:52:24;;;;;;;;;13.00;13.00;;;;;;;;5098893;27;45839;-65
2022/07/21 03:54:49;;;;;;;;;12.75;12.25;;;;;;;;5080533;27;45493;-65
2022/07/21 03:57:14;;;;;;;;;13.50;11.50;;;;;;;;5098465;27;46267;-64
2022/07/21 03:59:39;;;;;;;;;16.25;15.25;;;;;;;;5098570;27;45301;-65
2022/07/21 04:02:05;;;;;;;;;10.50;8.75;;;;;;;;5098781;27;45258;-65
2022/07/21 04:04:30;;;;;;;;;12.50;12.00;;;;;;;;5080379;27;45388;-64
2022/07/21 04:06:55;;;;;;;;;15.00;13.75;;;;;;;;5097433;27;45441;-65
2022/07/21 04:09:20;;;;;;;;;12.75;12.75;;;;;;;;5098233;27;45241;-64
2022/07/21 04:11:46;;;;;;;;;18.00;16.50;;;;;;;;5098599;27;45529;-64
2022/07/21 04:14:11;;;;;;;;;16.25;15.00;;;;;;;;5098357;27;45420;-64
2022/07/21 04:16:36;;;;;;;;;15.25;15.25;;;;;;;;5098105;27;45666;-65
2022/07/21 04:19:01;;;;;;;;;13.25;13.25;;;;;;;;5097427;27;45358;-65
2022/07/21 04:21:26;;;;;;;;;17.75;15.00;;;;;;;;5098254;27;45285;-64
2022/07/21 04:23:51;;;;;;;;;19.75;18.75;;;;;;;;5098511;27;45259;-65
2022/07/21 04:26:17;;;;;;;;;17.00;17.00;;;;;;;;5079192;27;48763;-64
2022/07/21 04:28:42;;;;;;;;;20.25;16.75;;;;;;;;5098102;27;45352;-65
2022/07/21 04:31:07;;;;;;;;;19.50;18.50;;;;;;;;5098395;27;45318;-64
2022/07/21 04:33:32;;;;;;;;;19.00;18.50;;;;;;;;5097533;27;45380;-65
2022/07/21 04:35:58;;;;;;;;;21.50;20.50;;;;;;;;5079487;27;48461;-64
2022/07/21 04:38:23;;;;;;;;;18.25;17.75;;;;;;;;5097996;27;45305;-63
2022/07/21 04:40:48;;;;;;;;;20.00;15.50;;;;;;;;5097371;27;45305;-64
2022/07/21 04:43:13;;;;;;;;;16.75;16.75;;;;;;;;5079580;27;45385;-65
2022/07/21 04:45:38;;;;;;;;;18.75;17.25;;;;;;;;5097641;27;46424;-64
2022/07/21 04:48:04;;;;;;;;;20.00;17.25;;;;;;;;5097606;27;45222;-64
2022/07/21 04:50:29;;;;;;;;;18.25;17.25;;;;;;;;5097917;27;45356;-67
2022/07/21 04:52:54;;;;;;;;;18.25;18.00;;;;;;;;5097838;27;45325;-67
2022/07/21 04:55:20;;;;;;;;;21.25;21.00;;;;;;;;5097593;27;45618;-66
2022/07/21 04:57:46;;;;;;;;;19.25;17.25;;;;;;;;5072519;27;45563;-68
2022/07/21 05:00:14;;;;;;;;;20.50;19.75;;;;;;;;5097629;27;45444;-68
2022/07/21 05:02:39;;;;;;;;;21.50;20.50;;;;;;;;5097155;27;45239;-67
2022/07/21 05:05:05;;;;;;;;;16.75;15.75;;;;;;;;5097277;27;46441;-66
2022/07/21 05:07:30;;;;;;;;;23.50;22.00;;;;;;;;5096764;27;45437;-66
2022/07/21 05:09:57;;;;;;;;;17.00;16.50;;;;;;;;5097366;27;45329;-67
2022/07/21 05:12:22;;;;;;;;;18.50;17.75;;;;;;;;5097192;27;45385;-66
2022/07/21 05:14:47;;;;;;;;;19.00;19.00;;;;;;;;5096935;27;46374;-65
2022/07/21 05:17:12;;;;;;;;;19.75;19.50;;;;;;;;5077993;27;45374;-65
2022/07/21 05:19:38;;;;;;;;;17.50;16.25;;;;;;;;5097278;27;45470;-65
2022/07/21 05:22:03;;;;;;;;;20.00;20.00;;;;;;;;5097131;27;45376;-65
2022/07/21 05:24:28;;;;;;;;;18.25;17.25;;;;;;;;5097146;27;46022;-65
2022/07/21 05:26:53;;;;;;;;;17.75;17.25;;;;;;;;5077968;27;46156;-65
2022/07/21 05:29:18;;;;;;;;;26.75;20.00;;;;;;;;5096823;27;45416;-66
2022/07/21 05:31:44;;;;;;;;;19.00;18.75;;;;;;;;5096167;27;45614;-65
2022/07/21 05:34:10;;;;;;;;;18.75;18.25;;;;;;;;5077062;27;47454;-65
2022/07/21 05:36:35;;;;;;;;;22.00;22.00;;;;;;;;5078802;27;45404;-64
2022/07/21 05:39:00;;;;;;;;;18.25;18.25;;;;;;;;5078516;27;45435;-64
2022/07/21 05:41:25;;;;;;;;;25.50;23.75;;;;;;;;5096798;27;45352;-64
2022/07/21 05:43:50;;;;;;;;;21.75;20.75;;;;;;;;5095669;27;46445;-64
2022/07/21 05:46:16;;;;;;;;;19.50;18.50;;;;;;;;5096169;27;45381;-65
2022/07/21 05:48:41;;;;;;;;;24.50;23.75;;;;;;;;5096839;27;45381;-64
2022/07/21 05:51:07;;;;;;;;;21.25;20.25;;;;;;;;5096850;27;45365;-66
2022/07/21 05:53:32;;;;;;;;;18.00;16.75;;;;;;;;5096494;27;45365;-64
2022/07/21 05:55:57;;;;;;;;;20.50;20.00;;;;;;;;5089947;27;45325;-65
2022/07/21 05:58:24;;;;;;;;;21.25;21.25;;;;;;;;5096444;27;45461;-65
2022/07/21 06:01:07;;;;;;;;;18.00;17.50;;;;;;;;5097004;27;45281;-65
2022/07/21 06:03:33;;;;;;;;;18.50;17.75;;;;;;;;5096280;27;46467;-64
2022/07/21 06:05:58;;;;;;;;;19.75;17.50;;;;;;;;5070411;27;46080;-64
2022/07/21 06:08:23;;;;;;;;;18.50;17.25;;;;;;;;5090326;27;45180;-64
2022/07/21 06:10:48;;;;;;;;;20.00;18.75;;;;;;;;5096532;27;45331;-65
2022/07/21 06:13:14;;;;;;;;;21.50;19.50;;;;;;;;5096491;27;45630;-65
2022/07/21 06:15:39;;;;;;;;;24.25;22.00;;;;;;;;5077040;27;45310;-65
2022/07/21 06:18:04;;;;;;;;;15.25;14.00;;;;;;;;5089353;27;45361;-64
2022/07/21 06:20:29;;;;;;;;;20.50;20.50;;;;;;;;5094798;27;45381;-63
2022/07/21 06:22:55;;;;;;;;;23.50;23.00;;;;;;;;5095780;27;45647;-64
2022/07/21 06:25:20;;;;;;;;;25.50;25.50;;;;;;;;5095819;27;45234;-64
2022/07/21 06:27:45;;;;;;;;;22.75;18.75;;;;;;;;5077921;27;45341;-64
2022/07/21 06:30:11;;;;;;;;;17.50;16.00;;;;;;;;5096558;27;45261;-64
2022/07/21 06:32:36;;;;;;;;;16.00;14.75;;;;;;;;5096132;27;45655;-64
2022/07/21 06:35:02;;;;;;;;;22.00;20.00;;;;;;;;5096000;27;45279;-64
2022/07/21 06:37:27;;;;;;;;;19.00;17.00;;;;;;;;5096379;27;45333;-64
2022/07/21 06:39:52;;;;;;;;;22.25;21.75;;;;;;;;5096608;27;45279;-64
2022/07/21 06:42:17;;;;;;;;;19.50;18.75;;;;;;;;5077699;27;46505;-65
2022/07/21 06:44:42;;;;;;;;;20.75;20.25;;;;;;;;5096328;27;45319;-64
2022/07/21 06:47:08;;;;;;;;;20.75;17.75;;;;;;;;5099805;27;45289;-65
2022/07/21 06:49:34;;;;;;;;;21.00;21.00;;;;;;;;5081499;27;45646;-64
2022/07/21 06:51:59;;;;;;;;;17.50;17.50;;;;;;;;5099548;27;45667;-64
2022/07/21 06:54:25;;;;;;;;;18.75;18.00;;;;;;;;5099807;27;45266;-64
2022/07/21 06:56:50;;;;;;;;;23.75;21.75;;;;;;;;5099789;27;45367;-65
2022/07/21 06:59:15;;;;;;;;;25.75;23.50;;;;;;;;5099835;27;45257;-63
2022/07/21 07:01:40;;;;;;;;;22.50;20.75;;;;;;;;5080978;27;46524;-63
2022/07/21 07:04:06;;;;;;;;;25.00;20.75;;;;;;;;5099375;27;45304;-63
2022/07/21 07:06:31;;;;;;;;;27.75;19.25;;;;;;;;5081302;27;45709;-64
2022/07/21 07:08:56;;;;;;;;;27.75;26.00;;;;;;;;5081211;27;45493;-64
2022/07/21 07:11:21;;;;;;;;;18.25;16.50;;;;;;;;5099436;27;46551;-64
2022/07/21 07:13:46;;;;;;;;;25.75;24.50;;;;;;;;5099360;27;45416;-65
2022/07/21 07:16:11;;;;;;;;;24.50;22.50;;;;;;;;5099282;27;45421;-65
2022/07/21 07:18:37;;;;;;;;;25.50;23.25;;;;;;;;5099456;27;45152;-63
2022/07/21 07:21:03;;;;;;;;;29.50;28.50;;;;;;;;5099137;27;47350;-64
2022/07/21 07:23:28;;;;;;;;;24.25;22.75;;;;;;;;5099059;27;45465;-66
2022/07/21 07:25:53;;;;;;;;;25.50;22.75;;;;;;;;5098355;27;46039;-64
2022/07/21 07:28:18;;;;;;;;;20.25;15.25;;;;;;;;5098996;27;45396;-64
2022/07/21 07:30:43;;;;;;;;;19.25;19.25;;;;;;;;5098876;27;46655;-64
2022/07/21 07:33:09;;;;;;;;;28.00;24.00;;;;;;;;5099006;27;45365;-64
2022/07/21 07:35:34;;;;;;;;;19.00;18.75;;;;;;;;5080562;27;45327;-65
2022/07/21 07:37:59;;;;;;;;;24.00;24.00;;;;;;;;5080544;27;45302;-65
2022/07/21 07:40:24;;;;;;;;;23.00;23.00;;;;;;;;5080445;27;48420;-65
2022/07/21 07:42:50;;;;;;;;;22.00;20.75;;;;;;;;5098941;27;45436;-65
2022/07/21 07:45:16;;;;;;;;;19.50;19.50;;;;;;;;5099116;27;45334;-64
2022/07/21 07:47:41;;;;;;;;;22.00;20.50;;;;;;;;5098647;27;45402;-64
2022/07/21 07:50:08;;;;;;;;;26.25;22.75;;;;;;;;5098501;27;45338;-63
2022/07/21 07:52:33;;;;;;;;;25.75;24.50;;;;;;;;5080336;27;45352;-65
2022/07/21 07:54:59;;;;;;;;;19.00;18.00;;;;;;;;5080141;27;45551;-65
2022/07/21 07:57:24;;;;;;;;;26.50;26.00;;;;;;;;5079843;27;45405;-64
2022/07/21 07:59:49;;;;;;;;;24.00;23.75;;;;;;;;5098441;27;46433;-65
2022/07/21 08:02:14;;;;;;;;;23.50;21.25;;;;;;;;5098765;27;45357;-65
2022/07/21 08:04:41;;;;;;;;;22.00;19.75;;;;;;;;5098956;27;45447;-64
2022/07/21 08:07:06;;;;;;;;;26.50;24.25;;;;;;;;5098480;27;45418;-65
2022/07/21 08:09:31;;;;;;;;;25.25;24.25;;;;;;;;5079620;27;47390;-65
2022/07/21 08:11:56;;;;;;;;;23.50;21.00;;;;;;;;5079652;27;46260;-63
2022/07/21 08:14:22;;;;;;;;;27.75;26.25;;;;;;;;5098424;27;45369;-64
2022/07/21 08:16:47;;;;;;;;;30.75;27.50;;;;;;;;5098387;27;45392;-65
2022/07/21 08:19:12;;;;;;;;;25.50;23.50;;;;;;;;5098196;27;45735;-65
2022/07/21 08:21:37;;;;;;;;;19.25;19.25;;;;;;;;5080004;27;45364;-64
2022/07/21 08:24:03;;;;;;;;;26.00;24.75;;;;;;;;5098570;27;45270;-64
2022/07/21 08:26:28;;;;;;;;;25.50;25.00;;;;;;;;5098043;27;45182;-64
2022/07/21 08:28:53;;;;;;;;;28.75;26.50;;;;;;;;5097885;27;46161;-65
2022/07/21 08:31:19;;;;;;;;;21.75;21.00;;;;;;;;5098164;27;45226;-66
2022/07/21 08:33:44;;;;;;;;;26.00;25.25;;;;;;;;5098342;27;45344;-65
2022/07/21 08:36:10;;;;;;;;;25.50;23.75;;;;;;;;5079811;27;45429;-64
2022/07/21 08:38:35;;;;;;;;;21.50;20.25;;;;;;;;5097799;27;45373;-64
2022/07/21 08:41:01;;;;;;;;;22.75;21.25;;;;;;;;5098145;27;45293;-64
2022/07/21 08:43:26;;;;;;;;;23.50;21.50;;;;;;;;5098068;27;45405;-66
2022/07/21 08:45:52;;;;;;;;;30.00;29.00;;;;;;;;5098059;27;45376;-65
2022/07/21 08:48:23;;;;;;;;;29.00;26.50;;;;;;;;5097679;27;45862;-65
2022/07/21 08:50:48;;;;;;;;;23.75;23.00;;;;;;;;5097868;27;45369;-64
2022/07/21 08:53:13;;;;;;;;;27.25;24.00;;;;;;;;5097943;27;45325;-65
2022/07/21 08:55:41;;;;;;;;;24.00;24.00;;;;;;;;5079528;27;45394;-64
2022/07/21 08:58:11;;;;;;;;;28.25;28.25;;;;;;;;5097690;27;46102;-64
2022/07/21 09:00:37;;;;;;;;;27.50;27.50;;;;;;;;5079081;27;46347;-64
2022/07/21 09:03:21;;;;;;;;;30.25;27.75;;;;;;;;5097616;27;45378;-64
2022/07/21 09:05:58;;;;;;;;;25.75;25.75;;;;;;;;5097714;27;45294;-64
2022/07/21 09:08:44;;;;;;;;;24.25;22.75;;;;;;;;5096248;27;46549;-63
2022/07/21 09:11:15;;;;;;;;;23.00;23.00;;;;;;;;5096698;27;45353;-64
2022/07/21 09:13:41;;;;;;;;;21.50;20.25;;;;;;;;5097439;27;45480;-63
2022/07/21 09:16:06;;;;;;;;;26.00;26.00;;;;;;;;5097259;27;45338;-64
2022/07/21 09:18:32;;;;;;;;;23.25;23.25;;;;;;;;5097393;27;46313;-65
2022/07/21 09:20:58;;;;;;;;;21.75;20.75;;;;;;;;5097342;27;45390;-65
2022/07/21 09:23:24;;;;;;;;;17.75;15.50;;;;;;;;5097493;27;45159;-64
2022/07/21 09:25:53;;;;;;;;;18.25;18.00;;;;;;;;5097290;27;45369;-65
2022/07/21 09:28:19;;;;;;;;;23.25;22.25;;;;;;;;5096954;27;45811;-64
2022/07/21 09:30:51;;;;;;;;;28.25;26.00;;;;;;;;5078687;27;45388;-63
2022/07/21 09:33:23;;;;;;;;;16.50;15.00;;;;;;;;5097308;27;45341;-64
2022/07/21 09:35:53;;;;;;;;;19.50;17.50;;;;;;;;5097077;27;45407;-64
2022/07/21 09:38:18;;;;;;;;;20.25;18.25;;;;;;;;5096772;27;46462;-64
2022/07/21 09:40:47;;;;;;;;;20.50;20.50;;;;;;;;5078454;27;45592;-65
2022/07/21 09:43:27;;;;;;;;;21.50;20.00;;;;;;;;5078713;27;45472;-65
2022/07/21 09:45:54;;;;;;;;;18.50;18.50;;;;;;;;5097133;27;45379;-65
2022/07/21 09:48:29;;;;;;;;;23.25;21.50;;;;;;;;5096735;27;45939;-64
2022/07/21 09:50:54;;;;;;;;;18.75;17.75;;;;;;;;5078418;27;45316;-65
2022/07/21 09:53:19;;;;;;;;;19.50;19.00;;;;;;;;5097021;27;45289;-65
2022/07/21 09:55:46;;;;;;;;;26.25;21.50;;;;;;;;5096884;27;45290;-63
2022/07/21 09:58:11;;;;;;;;;16.75;16.75;;;;;;;;5096763;27;45632;-64
2022/07/21 10:00:37;;;;;;;;;18.50;17.00;;;;;;;;5096774;27;45356;-65
2022/07/21 10:03:03;;;;;;;;;21.00;17.25;;;;;;;;5096951;27;45309;-64
2022/07/21 10:05:29;;;;;;;;;21.75;21.00;;;;;;;;5096867;27;45393;-64
2022/07/21 10:07:54;;;;;;;;;19.75;16.50;;;;;;;;5096846;27;46367;-65
2022/07/21 10:10:19;;;;;;;;;20.00;20.00;;;;;;;;5096460;27;45436;-65
2022/07/21 10:12:45;;;;;;;;;16.00;16.00;;;;;;;;5096822;27;45273;-65
2022/07/21 10:15:10;;;;;;;;;18.50;15.75;;;;;;;;5096695;27;45342;-64
2022/07/21 10:17:36;;;;;;;;;16.25;15.50;;;;;;;;5095087;27;46065;-65
2022/07/21 10:20:11;;;;;;;;;18.25;17.25;;;;;;;;5095025;27;45313;-65
2022/07/21 10:22:55;;;;;;;;;17.50;17.50;;;;;;;;5095133;27;45368;-64
2022/07/21 10:25:21;;;;;;;;;16.25;15.00;;;;;;;;5076448;27;45309;-64
2022/07/21 10:28:05;;;;;;;;;14.00;12.25;;;;;;;;5076304;27;47404;-64
2022/07/21 10:30:44;;;;;;;;;14.75;14.75;;;;;;;;5095075;27;45209;-65
2022/07/21 10:33:09;;;;;;;;;15.25;14.50;;;;;;;;5095176;27;45439;-67
2022/07/21 10:35:38;;;;;;;;;16.50;15.25;;;;;;;;5076384;27;45362;-66
2022/07/21 10:38:04;;;;;;;;;13.25;13.25;;;;;;;;5094742;27;45309;-66
2022/07/21 10:40:29;;;;;;;;;17.00;15.75;;;;;;;;5076460;27;45317;-65
2022/07/21 10:43:00;;;;;;;;;15.50;14.75;;;;;;;;5094937;27;45442;-64
2022/07/21 10:45:36;;;;;;;;;15.75;14.75;;;;;;;;5094879;27;45450;-65
2022/07/21 10:48:02;;;;;;;;;16.25;16.25;;;;;;;;5094472;27;45845;-64
2022/07/21 10:50:31;;;;;;;;;12.75;12.75;;;;;;;;5094693;27;45356;-64
2022/07/21 10:52:57;;;;;;;;;16.75;16.25;;;;;;;;5076369;27;45479;-64
2022/07/21 10:55:25;;;;;;;;;10.00;10.00;;;;;;;;5094589;27;45329;-65
2022/07/21 10:58:10;;;;;;;;;16.75;15.25;;;;;;;;5094454;27;47376;-64
2022/07/21 11:00:38;;;;;;;;;15.00;15.00;;;;;;;;5094453;27;45344;-65
2022/07/21 11:03:12;;;;;;;;;14.00;14.00;;;;;;;;5094827;27;45335;-64
2022/07/21 11:05:57;;;;;;;;;16.00;15.00;;;;;;;;5094481;27;45294;-64
2022/07/21 11:08:29;;;;;;;;;10.50;10.50;;;;;;;;5075616;27;47513;-65
2022/07/21 11:11:06;;;;;;;;;15.00;15.00;;;;;;;;5094331;27;45494;-65
2022/07/21 11:13:51;;;;;;;;;14.00;14.00;;;;;;;;5094534;27;45382;-64
2022/07/21 11:16:16;;;;;;;;;14.50;12.50;;;;;;;;5033947;28;1097735;-65
2022/07/21 11:18:42;;;;;;;;;16.75;16.50;;;;;;;;5075246;28;45480;-64
2022/07/21 11:21:10;;;;;;;;;14.00;14.00;;;;;;;;5075465;28;45320;-66
2022/07/21 11:23:36;;;;;;;;;14.00;12.75;;;;;;;;5075438;28;45343;-65
2022/07/21 11:26:01;;;;;;;;;14.00;12.25;;;;;;;;5073976;28;45354;-64
2022/07/21 11:28:26;;;;;;;;;14.50;14.00;;;;;;;;5075064;28;45519;-64
2022/07/21 11:31:06;;;;;;;;;15.75;14.25;;;;;;;;5075635;28;45405;-64
2022/07/21 11:33:31;;;;;;;;;15.00;14.00;;;;;;;;5079013;28;45309;-64
2022/07/21 11:35:56;;;;;;;;;12.75;12.75;;;;;;;;5060591;28;45458;-64
2022/07/21 11:38:22;;;;;;;;;14.25;12.00;;;;;;;;5078530;28;46518;-64
2022/07/21 11:40:47;;;;;;;;;12.75;12.75;;;;;;;;5078562;28;45270;-64
2022/07/21 11:43:12;;;;;;;;;15.00;14.00;;;;;;;;5078852;28;45322;-64
2022/07/21 11:45:37;;;;;;;;;19.00;15.00;;;;;;;;5060537;28;45472;-64
2022/07/21 11:48:03;;;;;;;;;12.75;12.75;;;;;;;;5060105;28;47614;-64
2022/07/21 11:50:30;;;;;;;;;14.25;14.00;;;;;;;;5078750;28;45392;-64
2022/07/21 11:52:56;;;;;;;;;18.50;15.75;;;;;;;;5078596;28;45219;-64
2022/07/21 11:55:21;;;;;;;;;12.00;12.00;;;;;;;;5078302;28;45286;-65
2022/07/21 11:57:46;;;;;;;;;11.25;11.25;;;;;;;;5078378;28;45991;-64
2022/07/21 12:00:12;;;;;;;;;15.75;14.75;;;;;;;;5078218;28;45341;-64
2022/07/21 12:02:38;;;;;;;;;13.00;13.00;;;;;;;;5078345;28;45330;-64
2022/07/21 12:05:04;;;;;;;;;16.75;16.50;;;;;;;;5078213;28;45314;-65
2022/07/21 12:07:39;;;;;;;;;13.25;12.50;;;;;;;;5076639;28;48600;-63
2022/07/21 12:10:06;;;;;;;;;14.00;12.25;;;;;;;;5077965;28;45461;-64
2022/07/21 12:12:31;;;;;;;;;12.75;12.75;;;;;;;;5077990;28;45320;-65
2022/07/21 12:14:57;;;;;;;;;12.00;12.00;;;;;;;;5078154;28;45445;-64
2022/07/21 12:17:33;;;;;;;;;17.50;15.75;;;;;;;;5074825;27;46360;-64
2022/07/21 12:19:58;;;;;;;;;14.75;13.25;;;;;;;;5098474;27;45424;-64
2022/07/21 12:22:37;;;;;;;;;15.00;14.50;;;;;;;;5098542;27;45408;-64
2022/07/21 12:25:03;;;;;;;;;15.00;12.75;;;;;;;;5080131;27;45511;-64
2022/07/21 12:27:28;;;;;;;;;17.00;16.00;;;;;;;;5098182;27;46334;-64
2022/07/21 12:29:53;;;;;;;;;12.50;12.50;;;;;;;;5098622;27;45357;-65
2022/07/21 12:32:37;;;;;;;;;13.25;12.00;;;;;;;;5098526;27;45425;-64
2022/07/21 12:35:03;;;;;;;;;14.75;13.75;;;;;;;;5079835;27;45436;-64
2022/07/21 12:37:46;;;;;;;;;14.75;14.25;;;;;;;;5079569;27;47355;-65
2022/07/21 12:40:12;;;;;;;;;14.00;13.25;;;;;;;;5079813;27;45518;-64
2022/07/21 12:42:38;;;;;;;;;14.25;13.00;;;;;;;;5096827;27;45313;-65
2022/07/21 12:45:32;;;;;;;;;15.00;14.50;;;;;;;;5097888;27;45265;-65
2022/07/21 12:48:05;;;;;;;;;12.75;12.50;;;;;;;;5075503;27;46479;-66
2022/07/21 12:50:30;;;;;;;;;14.75;12.00;;;;;;;;5097955;27;45218;-65
2022/07/21 12:52:55;;;;;;;;;12.75;11.75;;;;;;;;5098038;27;45391;-65
2022/07/21 12:55:21;;;;;;;;;14.75;13.50;;;;;;;;5098085;27;45344;-65
2022/07/21 12:57:46;;;;;;;;;15.75;15.25;;;;;;;;5097305;27;46020;-64
2022/07/21 13:00:11;;;;;;;;;12.50;12.50;;;;;;;;5079201;27;47034;-65
2022/07/21 13:02:50;;;;;;;;;17.00;16.00;;;;;;;;5097502;27;45510;-65
2022/07/21 13:05:15;;;;;;;;;15.50;14.25;;;;;;;;5097942;27;45364;-65
2022/07/21 13:07:40;;;;;;;;;16.25;16.25;;;;;;;;5097416;27;45738;-64
2022/07/21 13:10:05;;;;;;;;;13.00;12.00;;;;;;;;5097679;27;45507;-65
2022/07/21 13:12:31;;;;;;;;;16.50;14.75;;;;;;;;5097717;27;45267;-64
2022/07/21 13:14:56;;;;;;;;;17.00;17.00;;;;;;;;5097720;27;45368;-64
2022/07/21 13:17:21;;;;;;;;;12.25;12.25;;;;;;;;5097151;27;45854;-64
2022/07/21 13:19:47;;;;;;;;;14.25;13.50;;;;;;;;5097484;27;45476;-64
2022/07/21 13:22:12;;;;;;;;;12.00;11.25;;;;;;;;5097538;27;45484;-65
2022/07/21 13:24:37;;;;;;;;;12.00;12.00;;;;;;;;5078993;27;45353;-64
2022/07/21 13:27:02;;;;;;;;;14.00;13.75;;;;;;;;5097147;27;45786;-65
2022/07/21 13:29:27;;;;;;;;;12.00;12.00;;;;;;;;5097029;27;45312;-64
2022/07/21 13:31:53;;;;;;;;;5.25;5.25;;;;;;;;5097541;27;45401;-64
2022/07/21 13:34:19;;;;;;;;;14.50;14.50;;;;;;;;5097378;27;45451;-64
2022/07/21 13:36:44;;;;;;;;;14.25;13.25;;;;;;;;5078687;27;47415;-65
2022/07/21 13:39:09;;;;;;;;;14.75;14.00;;;;;;;;5097189;27;45384;-65
2022/07/21 13:41:34;;;;;;;;;17.50;14.25;;;;;;;;5097192;27;45426;-64
2022/07/21 13:44:00;;;;;;;;;14.25;13.25;;;;;;;;5097255;27;45481;-64
2022/07/21 13:46:26;;;;;;;;;15.00;15.00;;;;;;;;5096860;27;46118;-64
2022/07/21 13:48:51;;;;;;;;;17.50;16.50;;;;;;;;5096941;27;45483;-65
2022/07/21 13:51:17;;;;;;;;;14.50;14.50;;;;;;;;5097252;27;45412;-64
2022/07/21 13:53:43;;;;;;;;;14.00;14.00;;;;;;;;5096737;27;45416;-65
2022/07/21 13:56:09;;;;;;;;;14.00;13.50;;;;;;;;5096673;27;45389;-64
2022/07/21 13:58:34;;;;;;;;;16.75;15.25;;;;;;;;5096762;27;45342;-64
2022/07/21 14:00:59;;;;;;;;;15.75;14.25;;;;;;;;5096747;27;45270;-65
2022/07/21 14:03:24;;;;;;;;;13.50;12.75;;;;;;;;5096591;27;45469;-64
2022/07/21 14:05:50;;;;;;;;;14.50;14.50;;;;;;;;5078219;27;47688;-65
2022/07/21 14:08:15;;;;;;;;;15.25;13.50;;;;;;;;5078299;27;45399;-65
2022/07/21 14:10:40;;;;;;;;;11.75;10.75;;;;;;;;5078430;27;45274;-65
2022/07/21 14:13:05;;;;;;;;;12.25;12.25;;;;;;;;5096845;27;45391;-65
2022/07/21 14:15:31;;;;;;;;;13.25;13.25;;;;;;;;5096592;27;45388;-64
2022/07/21 14:17:56;;;;;;;;;15.50;15.00;;;;;;;;5096353;27;45488;-65
2022/07/21 14:20:21;;;;;;;;;13.50;13.25;;;;;;;;5096698;27;45348;-64
2022/07/21 14:22:46;;;;;;;;;14.00;14.00;;;;;;;;5096587;27;45331;-65